sensor_id;sensor_type;location;lat;lon;timestamp;P1;durP1;ratioP1;P2;durP2;ratioP2
33804;SDS011;66088;52.622;13.306;2022-12-20T00:01:47;70.53;;;16.27;;
33804;SDS011;66088;52.622;13.306;2022-12-20T00:06:09;50.38;;;14.75;;
33804;SDS011;66088;52.622;13.306;2022-12-20T00:10:29;56.47;;;14.32;;
33804;SDS011;66088;52.622;13.306;2022-12-20T00:14:49;58.88;;;15.52;;
33804;SDS011;66088;52.622;13.306;2022-12-20T00:19:09;42.10;;;15.18;;
33804;SDS011;66088;52.622;13.306;2022-12-20T00:23:31;52.72;;;15.85;;
33804;SDS011;66088;52.622;13.306;2022-12-20T00:27:51;40.67;;;13.23;;
33804;SDS011;66088;52.622;13.306;2022-12-20T00:32:10;41.38;;;14.73;;
33804;SDS011;66088;52.622;13.306;2022-12-20T00:36:30;28.73;;;13.55;;
33804;SDS011;66088;52.622;13.306;2022-12-20T00:41:00;30.58;;;12.88;;
33804;SDS011;66088;52.622;13.306;2022-12-20T00:45:21;30.27;;;13.40;;
33804;SDS011;66088;52.622;13.306;2022-12-20T00:49:41;23.80;;;14.18;;
33804;SDS011;66088;52.622;13.306;2022-12-20T00:54:00;80.60;;;15.70;;
33804;SDS011;66088;52.622;13.306;2022-12-20T00:58:22;53.17;;;15.57;;
33804;SDS011;66088;52.622;13.306;2022-12-20T01:02:41;85.82;;;16.23;;
33804;SDS011;66088;52.622;13.306;2022-12-20T01:07:01;71.32;;;15.23;;
33804;SDS011;66088;52.622;13.306;2022-12-20T01:11:21;97.53;;;16.67;;
33804;SDS011;66088;52.622;13.306;2022-12-20T01:15:45;62.33;;;15.10;;
33804;SDS011;66088;52.622;13.306;2022-12-20T01:20:05;46.50;;;14.48;;
33804;SDS011;66088;52.622;13.306;2022-12-20T01:24:25;43.20;;;13.77;;
33804;SDS011;66088;52.622;13.306;2022-12-20T01:28:45;49.53;;;14.98;;
33804;SDS011;66088;52.622;13.306;2022-12-20T01:33:08;38.78;;;14.27;;
33804;SDS011;66088;52.622;13.306;2022-12-20T01:37:28;43.00;;;14.70;;
33804;SDS011;66088;52.622;13.306;2022-12-20T01:41:47;30.02;;;13.95;;
33804;SDS011;66088;52.622;13.306;2022-12-20T01:46:07;32.17;;;13.15;;
33804;SDS011;66088;52.622;13.306;2022-12-20T01:50:29;76.32;;;15.95;;
33804;SDS011;66088;52.622;13.306;2022-12-20T01:54:49;48.45;;;15.20;;
33804;SDS011;66088;52.622;13.306;2022-12-20T01:59:10;42.92;;;14.52;;
33804;SDS011;66088;52.622;13.306;2022-12-20T02:03:31;31.52;;;14.50;;
33804;SDS011;66088;52.622;13.306;2022-12-20T02:07:54;37.47;;;13.70;;
33804;SDS011;66088;52.622;13.306;2022-12-20T02:12:16;47.63;;;14.02;;
33804;SDS011;66088;52.622;13.306;2022-12-20T02:16:42;85.28;;;16.45;;
33804;SDS011;66088;52.622;13.306;2022-12-20T02:21:10;81.95;;;15.85;;
33804;SDS011;66088;52.622;13.306;2022-12-20T02:25:45;56.72;;;14.23;;
33804;SDS011;66088;52.622;13.306;2022-12-20T02:30:18;42.45;;;13.45;;
33804;SDS011;66088;52.622;13.306;2022-12-20T02:34:39;38.38;;;13.00;;
33804;SDS011;66088;52.622;13.306;2022-12-20T02:39:00;31.98;;;12.63;;
33804;SDS011;66088;52.622;13.306;2022-12-20T02:43:19;50.08;;;12.82;;
33804;SDS011;66088;52.622;13.306;2022-12-20T02:47:44;79.57;;;15.63;;
33804;SDS011;66088;52.622;13.306;2022-12-20T02:52:07;46.53;;;13.85;;
33804;SDS011;66088;52.622;13.306;2022-12-20T02:56:30;35.60;;;14.10;;
33804;SDS011;66088;52.622;13.306;2022-12-20T03:00:53;66.82;;;15.43;;
33804;SDS011;66088;52.622;13.306;2022-12-20T03:05:17;91.80;;;16.35;;
33804;SDS011;66088;52.622;13.306;2022-12-20T03:09:40;83.50;;;16.40;;
33804;SDS011;66088;52.622;13.306;2022-12-20T03:14:01;68.25;;;15.32;;
33804;SDS011;66088;52.622;13.306;2022-12-20T03:18:20;42.88;;;13.57;;
33804;SDS011;66088;52.622;13.306;2022-12-20T03:22:42;55.50;;;14.57;;
33804;SDS011;66088;52.622;13.306;2022-12-20T03:27:02;88.45;;;16.20;;
33804;SDS011;66088;52.622;13.306;2022-12-20T03:31:21;68.63;;;15.30;;
33804;SDS011;66088;52.622;13.306;2022-12-20T03:35:40;65.53;;;14.63;;
33804;SDS011;66088;52.622;13.306;2022-12-20T03:40:03;46.45;;;13.45;;
33804;SDS011;66088;52.622;13.306;2022-12-20T03:44:23;78.28;;;15.55;;
33804;SDS011;66088;52.622;13.306;2022-12-20T03:48:43;47.75;;;15.10;;
33804;SDS011;66088;52.622;13.306;2022-12-20T03:53:02;53.55;;;14.88;;
33804;SDS011;66088;52.622;13.306;2022-12-20T03:57:24;32.50;;;12.45;;
33804;SDS011;66088;52.622;13.306;2022-12-20T04:01:43;35.13;;;13.63;;
33804;SDS011;66088;52.622;13.306;2022-12-20T04:06:03;58.15;;;14.25;;
33804;SDS011;66088;52.622;13.306;2022-12-20T04:10:23;79.88;;;14.65;;
33804;SDS011;66088;52.622;13.306;2022-12-20T04:14:45;58.38;;;15.10;;
33804;SDS011;66088;52.622;13.306;2022-12-20T04:19:04;43.50;;;13.45;;
33804;SDS011;66088;52.622;13.306;2022-12-20T04:23:24;41.63;;;13.13;;
33804;SDS011;66088;52.622;13.306;2022-12-20T04:27:43;44.22;;;12.80;;
33804;SDS011;66088;52.622;13.306;2022-12-20T04:32:05;53.20;;;13.15;;
33804;SDS011;66088;52.622;13.306;2022-12-20T04:36:25;48.03;;;12.35;;
33804;SDS011;66088;52.622;13.306;2022-12-20T04:40:44;29.13;;;12.20;;
33804;SDS011;66088;52.622;13.306;2022-12-20T04:45:07;35.70;;;12.23;;
33804;SDS011;66088;52.622;13.306;2022-12-20T04:49:29;61.10;;;13.10;;
33804;SDS011;66088;52.622;13.306;2022-12-20T04:53:48;68.57;;;15.73;;
33804;SDS011;66088;52.622;13.306;2022-12-20T04:58:08;79.75;;;14.60;;
33804;SDS011;66088;52.622;13.306;2022-12-20T05:02:27;102.07;;;15.70;;
33804;SDS011;66088;52.622;13.306;2022-12-20T05:06:49;176.65;;;19.45;;
33804;SDS011;66088;52.622;13.306;2022-12-20T05:11:08;107.28;;;16.27;;
33804;SDS011;66088;52.622;13.306;2022-12-20T05:15:28;112.72;;;16.75;;
33804;SDS011;66088;52.622;13.306;2022-12-20T05:19:48;85.80;;;14.32;;
33804;SDS011;66088;52.622;13.306;2022-12-20T05:24:10;77.63;;;14.80;;
33804;SDS011;66088;52.622;13.306;2022-12-20T05:28:29;67.05;;;14.95;;
33804;SDS011;66088;52.622;13.306;2022-12-20T05:32:49;73.75;;;14.68;;
33804;SDS011;66088;52.622;13.306;2022-12-20T05:37:09;48.97;;;12.48;;
33804;SDS011;66088;52.622;13.306;2022-12-20T05:41:31;62.15;;;12.35;;
33804;SDS011;66088;52.622;13.306;2022-12-20T05:45:50;48.85;;;12.30;;
33804;SDS011;66088;52.622;13.306;2022-12-20T05:50:10;36.17;;;12.75;;
33804;SDS011;66088;52.622;13.306;2022-12-20T05:54:30;77.03;;;13.57;;
33804;SDS011;66088;52.622;13.306;2022-12-20T05:58:52;79.90;;;13.73;;
33804;SDS011;66088;52.622;13.306;2022-12-20T06:03:11;46.92;;;12.63;;
33804;SDS011;66088;52.622;13.306;2022-12-20T06:07:31;44.33;;;12.07;;
33804;SDS011;66088;52.622;13.306;2022-12-20T06:11:50;61.28;;;13.57;;
33804;SDS011;66088;52.622;13.306;2022-12-20T06:16:13;74.55;;;14.63;;
33804;SDS011;66088;52.622;13.306;2022-12-20T06:20:32;46.72;;;14.32;;
33804;SDS011;66088;52.622;13.306;2022-12-20T06:24:52;68.25;;;13.63;;
33804;SDS011;66088;52.622;13.306;2022-12-20T06:29:11;114.28;;;16.83;;
33804;SDS011;66088;52.622;13.306;2022-12-20T06:33:33;79.75;;;16.05;;
33804;SDS011;66088;52.622;13.306;2022-12-20T06:37:53;164.70;;;19.08;;
33804;SDS011;66088;52.622;13.306;2022-12-20T06:42:12;257.83;;;27.55;;
33804;SDS011;66088;52.622;13.306;2022-12-20T06:46:32;193.45;;;22.40;;
33804;SDS011;66088;52.622;13.306;2022-12-20T06:50:54;132.05;;;19.42;;
33804;SDS011;66088;52.622;13.306;2022-12-20T06:55:13;112.15;;;17.52;;
33804;SDS011;66088;52.622;13.306;2022-12-20T06:59:33;71.63;;;16.25;;
33804;SDS011;66088;52.622;13.306;2022-12-20T07:03:52;54.30;;;13.95;;
33804;SDS011;66088;52.622;13.306;2022-12-20T07:08:15;54.80;;;14.90;;
33804;SDS011;66088;52.622;13.306;2022-12-20T07:12:35;35.00;;;12.85;;
33804;SDS011;66088;52.622;13.306;2022-12-20T07:16:55;39.97;;;13.60;;
33804;SDS011;66088;52.622;13.306;2022-12-20T07:21:14;51.40;;;14.00;;
33804;SDS011;66088;52.622;13.306;2022-12-20T07:25:36;42.35;;;13.60;;
33804;SDS011;66088;52.622;13.306;2022-12-20T07:29:56;42.55;;;14.82;;
33804;SDS011;66088;52.622;13.306;2022-12-20T07:34:15;61.25;;;14.27;;
33804;SDS011;66088;52.622;13.306;2022-12-20T07:38:35;65.15;;;15.57;;
33804;SDS011;66088;52.622;13.306;2022-12-20T07:42:57;192.95;;;19.90;;
33804;SDS011;66088;52.622;13.306;2022-12-20T07:47:16;204.25;;;23.42;;
33804;SDS011;66088;52.622;13.306;2022-12-20T07:51:39;735.30;;;55.55;;
33804;SDS011;66088;52.622;13.306;2022-12-20T07:56:01;737.85;;;58.80;;
33804;SDS011;66088;52.622;13.306;2022-12-20T08:00:27;577.05;;;47.13;;
33804;SDS011;66088;52.622;13.306;2022-12-20T08:04:46;588.60;;;52.95;;
33804;SDS011;66088;52.622;13.306;2022-12-20T08:09:07;488.45;;;42.35;;
33804;SDS011;66088;52.622;13.306;2022-12-20T08:13:29;108.55;;;21.63;;
33804;SDS011;66088;52.622;13.306;2022-12-20T08:17:53;633.25;;;52.38;;
33804;SDS011;66088;52.622;13.306;2022-12-20T08:22:12;678.85;;;55.58;;
33804;SDS011;66088;52.622;13.306;2022-12-20T08:26:35;536.22;;;51.60;;
33804;SDS011;66088;52.622;13.306;2022-12-20T08:30:59;476.45;;;46.47;;
33804;SDS011;66088;52.622;13.306;2022-12-20T08:35:21;229.48;;;30.98;;
33804;SDS011;66088;52.622;13.306;2022-12-20T08:39:41;274.52;;;32.28;;
33804;SDS011;66088;52.622;13.306;2022-12-20T08:44:00;313.83;;;34.15;;
33804;SDS011;66088;52.622;13.306;2022-12-20T08:48:20;158.00;;;24.83;;
33804;SDS011;66088;52.622;13.306;2022-12-20T08:52:42;180.93;;;26.77;;
33804;SDS011;66088;52.622;13.306;2022-12-20T08:57:02;159.30;;;25.00;;
33804;SDS011;66088;52.622;13.306;2022-12-20T09:01:21;107.60;;;23.08;;
33804;SDS011;66088;52.622;13.306;2022-12-20T09:05:44;74.30;;;20.35;;
33804;SDS011;66088;52.622;13.306;2022-12-20T09:10:08;78.43;;;21.17;;
33804;SDS011;66088;52.622;13.306;2022-12-20T09:14:28;361.30;;;36.28;;
33804;SDS011;66088;52.622;13.306;2022-12-20T09:18:47;582.08;;;54.72;;
33804;SDS011;66088;52.622;13.306;2022-12-20T09:23:07;362.25;;;37.88;;
33804;SDS011;66088;52.622;13.306;2022-12-20T09:27:29;448.52;;;44.75;;
33804;SDS011;66088;52.622;13.306;2022-12-20T09:31:49;484.08;;;48.42;;
33804;SDS011;66088;52.622;13.306;2022-12-20T09:36:09;611.38;;;59.95;;
33804;SDS011;66088;52.622;13.306;2022-12-20T09:40:30;540.63;;;53.05;;
33804;SDS011;66088;52.622;13.306;2022-12-20T09:44:52;294.35;;;38.38;;
33804;SDS011;66088;52.622;13.306;2022-12-20T09:49:16;248.25;;;32.80;;
33804;SDS011;66088;52.622;13.306;2022-12-20T09:53:40;223.90;;;30.58;;
33804;SDS011;66088;52.622;13.306;2022-12-20T09:58:13;155.63;;;26.08;;
33804;SDS011;66088;52.622;13.306;2022-12-20T10:02:43;170.07;;;24.35;;
33804;SDS011;66088;52.622;13.306;2022-12-20T10:07:07;218.13;;;28.67;;
33804;SDS011;66088;52.622;13.306;2022-12-20T10:11:41;200.43;;;23.90;;
33804;SDS011;66088;52.622;13.306;2022-12-20T10:16:14;251.32;;;30.42;;
33804;SDS011;66088;52.622;13.306;2022-12-20T10:20:53;149.27;;;23.98;;
33804;SDS011;66088;52.622;13.306;2022-12-20T10:25:16;108.65;;;22.58;;
33804;SDS011;66088;52.622;13.306;2022-12-20T10:29:37;89.93;;;19.45;;
33804;SDS011;66088;52.622;13.306;2022-12-20T10:33:57;137.68;;;21.95;;
33804;SDS011;66088;52.622;13.306;2022-12-20T10:38:19;152.05;;;23.08;;
33804;SDS011;66088;52.622;13.306;2022-12-20T10:42:39;203.00;;;24.15;;
33804;SDS011;66088;52.622;13.306;2022-12-20T10:46:59;278.35;;;28.70;;
33804;SDS011;66088;52.622;13.306;2022-12-20T10:51:19;315.02;;;32.42;;
33804;SDS011;66088;52.622;13.306;2022-12-20T10:55:43;240.93;;;28.83;;
33804;SDS011;66088;52.622;13.306;2022-12-20T11:00:04;260.17;;;28.15;;
33804;SDS011;66088;52.622;13.306;2022-12-20T11:04:26;213.50;;;26.55;;
33804;SDS011;66088;52.622;13.306;2022-12-20T11:08:47;215.02;;;27.90;;
33804;SDS011;66088;52.622;13.306;2022-12-20T11:13:17;200.48;;;26.58;;
33804;SDS011;66088;52.622;13.306;2022-12-20T11:17:40;199.25;;;26.85;;
33804;SDS011;66088;52.622;13.306;2022-12-20T11:22:04;161.30;;;21.67;;
33804;SDS011;66088;52.622;13.306;2022-12-20T11:26:35;109.00;;;19.38;;
33804;SDS011;66088;52.622;13.306;2022-12-20T11:31:18;80.68;;;17.85;;
33804;SDS011;66088;52.622;13.306;2022-12-20T11:35:46;58.28;;;18.63;;
33804;SDS011;66088;52.622;13.306;2022-12-20T11:40:19;49.70;;;15.80;;
33804;SDS011;66088;52.622;13.306;2022-12-20T11:44:52;40.33;;;15.48;;
33804;SDS011;66088;52.622;13.306;2022-12-20T11:54:14;25.65;;;13.07;;
33804;SDS011;66088;52.622;13.306;2022-12-20T11:58:46;26.95;;;13.68;;
33804;SDS011;66088;52.622;13.306;2022-12-20T12:03:10;26.05;;;12.52;;
33804;SDS011;66088;52.622;13.306;2022-12-20T12:07:34;48.05;;;13.90;;
33804;SDS011;66088;52.622;13.306;2022-12-20T12:12:01;55.08;;;13.70;;
33804;SDS011;66088;52.622;13.306;2022-12-20T12:16:23;64.50;;;15.00;;
33804;SDS011;66088;52.622;13.306;2022-12-20T12:20:47;49.90;;;14.32;;
33804;SDS011;66088;52.622;13.306;2022-12-20T12:25:12;35.42;;;13.45;;
33804;SDS011;66088;52.622;13.306;2022-12-20T12:29:38;33.35;;;14.25;;
33804;SDS011;66088;52.622;13.306;2022-12-20T12:34:09;42.95;;;13.00;;
33804;SDS011;66088;52.622;13.306;2022-12-20T12:43:36;50.42;;;14.02;;
33804;SDS011;66088;52.622;13.306;2022-12-20T12:48:06;60.45;;;14.00;;
33804;SDS011;66088;52.622;13.306;2022-12-20T12:52:41;40.08;;;15.20;;
33804;SDS011;66088;52.622;13.306;2022-12-20T12:57:05;25.73;;;12.27;;
33804;SDS011;66088;52.622;13.306;2022-12-20T13:01:45;26.90;;;13.40;;
33804;SDS011;66088;52.622;13.306;2022-12-20T13:11:01;128.05;;;16.92;;
33804;SDS011;66088;52.622;13.306;2022-12-20T13:20:14;84.57;;;15.15;;
33804;SDS011;66088;52.622;13.306;2022-12-20T13:24:36;49.47;;;15.05;;
33804;SDS011;66088;52.622;13.306;2022-12-20T13:29:25;48.67;;;14.13;;
33804;SDS011;66088;52.622;13.306;2022-12-20T13:34:02;28.73;;;12.32;;
33804;SDS011;66088;52.622;13.306;2022-12-20T13:38:52;23.52;;;11.05;;
33804;SDS011;66088;52.622;13.306;2022-12-20T13:43:14;27.80;;;12.82;;
33804;SDS011;66088;52.622;13.306;2022-12-20T13:47:50;49.17;;;15.60;;
33804;SDS011;66088;52.622;13.306;2022-12-20T13:52:18;29.35;;;13.65;;
33804;SDS011;66088;52.622;13.306;2022-12-20T13:56:45;19.30;;;12.07;;
33804;SDS011;66088;52.622;13.306;2022-12-20T14:01:06;23.63;;;11.98;;
33804;SDS011;66088;52.622;13.306;2022-12-20T14:05:31;23.83;;;12.60;;
33804;SDS011;66088;52.622;13.306;2022-12-20T14:09:54;20.60;;;12.18;;
33804;SDS011;66088;52.622;13.306;2022-12-20T14:14:21;22.50;;;12.23;;
33804;SDS011;66088;52.622;13.306;2022-12-20T14:18:40;22.60;;;13.05;;
33804;SDS011;66088;52.622;13.306;2022-12-20T14:23:01;21.95;;;12.45;;
33804;SDS011;66088;52.622;13.306;2022-12-20T14:27:23;20.58;;;12.80;;
33804;SDS011;66088;52.622;13.306;2022-12-20T14:31:50;29.13;;;12.98;;
33804;SDS011;66088;52.622;13.306;2022-12-20T14:36:15;134.40;;;18.48;;
33804;SDS011;66088;52.622;13.306;2022-12-20T14:40:39;143.95;;;19.23;;
33804;SDS011;66088;52.622;13.306;2022-12-20T14:45:03;67.65;;;18.48;;
33804;SDS011;66088;52.622;13.306;2022-12-20T14:49:27;68.25;;;14.88;;
33804;SDS011;66088;52.622;13.306;2022-12-20T14:53:48;71.10;;;17.30;;
33804;SDS011;66088;52.622;13.306;2022-12-20T14:58:21;52.60;;;14.80;;
33804;SDS011;66088;52.622;13.306;2022-12-20T15:02:45;71.85;;;15.82;;
33804;SDS011;66088;52.622;13.306;2022-12-20T15:11:49;60.33;;;15.73;;
33804;SDS011;66088;52.622;13.306;2022-12-20T15:16:12;74.43;;;15.77;;
33804;SDS011;66088;52.622;13.306;2022-12-20T15:20:33;73.80;;;16.65;;
33804;SDS011;66088;52.622;13.306;2022-12-20T15:24:55;73.47;;;15.98;;
33804;SDS011;66088;52.622;13.306;2022-12-20T15:29:15;66.95;;;15.95;;
33804;SDS011;66088;52.622;13.306;2022-12-20T15:33:37;61.58;;;15.80;;
33804;SDS011;66088;52.622;13.306;2022-12-20T15:37:57;51.92;;;15.15;;
33804;SDS011;66088;52.622;13.306;2022-12-20T15:42:19;53.33;;;16.85;;
33804;SDS011;66088;52.622;13.306;2022-12-20T15:46:46;59.10;;;15.82;;
33804;SDS011;66088;52.622;13.306;2022-12-20T15:51:34;49.22;;;16.48;;
33804;SDS011;66088;52.622;13.306;2022-12-20T15:56:21;43.83;;;14.77;;
33804;SDS011;66088;52.622;13.306;2022-12-20T16:00:50;43.33;;;15.55;;
33804;SDS011;66088;52.622;13.306;2022-12-20T16:10:12;39.30;;;17.33;;
33804;SDS011;66088;52.622;13.306;2022-12-20T16:14:41;56.95;;;16.70;;
33804;SDS011;66088;52.622;13.306;2022-12-20T16:24:14;40.67;;;17.67;;
33804;SDS011;66088;52.622;13.306;2022-12-20T16:28:47;36.05;;;16.42;;
33804;SDS011;66088;52.622;13.306;2022-12-20T16:33:33;40.53;;;16.92;;
33804;SDS011;66088;52.622;13.306;2022-12-20T16:38:14;43.05;;;16.90;;
33804;SDS011;66088;52.622;13.306;2022-12-20T16:48:02;37.90;;;17.35;;
33804;SDS011;66088;52.622;13.306;2022-12-20T16:53:14;59.80;;;18.83;;
33804;SDS011;66088;52.622;13.306;2022-12-20T17:02:44;61.20;;;18.48;;
33804;SDS011;66088;52.622;13.306;2022-12-20T17:07:14;46.60;;;19.40;;
33804;SDS011;66088;52.622;13.306;2022-12-20T17:11:46;46.50;;;20.60;;
33804;SDS011;66088;52.622;13.306;2022-12-20T17:16:13;40.50;;;19.17;;
33804;SDS011;66088;52.622;13.306;2022-12-20T17:20:52;62.53;;;19.95;;
33804;SDS011;66088;52.622;13.306;2022-12-20T17:25:25;69.80;;;20.17;;
33804;SDS011;66088;52.622;13.306;2022-12-20T17:30:01;58.28;;;19.40;;
33804;SDS011;66088;52.622;13.306;2022-12-20T17:34:48;51.35;;;20.08;;
33804;SDS011;66088;52.622;13.306;2022-12-20T17:44:35;41.05;;;18.83;;
33804;SDS011;66088;52.622;13.306;2022-12-20T17:49:18;41.55;;;19.95;;
33804;SDS011;66088;52.622;13.306;2022-12-20T17:53:51;47.42;;;21.08;;
33804;SDS011;66088;52.622;13.306;2022-12-20T18:03:45;49.38;;;20.55;;
33804;SDS011;66088;52.622;13.306;2022-12-20T18:08:33;45.13;;;19.55;;
33804;SDS011;66088;52.622;13.306;2022-12-20T18:13:10;52.30;;;20.02;;
33804;SDS011;66088;52.622;13.306;2022-12-20T18:22:26;44.40;;;18.58;;
33804;SDS011;66088;52.622;13.306;2022-12-20T18:27:01;35.65;;;18.17;;
33804;SDS011;66088;52.622;13.306;2022-12-20T18:36:30;37.50;;;17.85;;
33804;SDS011;66088;52.622;13.306;2022-12-20T18:41:10;43.03;;;18.55;;
33804;SDS011;66088;52.622;13.306;2022-12-20T18:45:54;71.43;;;19.20;;
33804;SDS011;66088;52.622;13.306;2022-12-20T18:50:23;60.42;;;19.17;;
33804;SDS011;66088;52.622;13.306;2022-12-20T19:04:30;55.33;;;19.15;;
33804;SDS011;66088;52.622;13.306;2022-12-20T19:09:13;46.25;;;17.30;;
33804;SDS011;66088;52.622;13.306;2022-12-20T19:13:35;36.28;;;17.10;;
33804;SDS011;66088;52.622;13.306;2022-12-20T19:17:54;37.17;;;17.83;;
33804;SDS011;66088;52.622;13.306;2022-12-20T19:22:14;32.53;;;17.13;;
33804;SDS011;66088;52.622;13.306;2022-12-20T19:31:25;51.33;;;17.40;;
33804;SDS011;66088;52.622;13.306;2022-12-20T19:36:11;52.17;;;16.95;;
33804;SDS011;66088;52.622;13.306;2022-12-20T19:40:58;52.38;;;17.13;;
33804;SDS011;66088;52.622;13.306;2022-12-20T19:45:22;48.55;;;17.42;;
33804;SDS011;66088;52.622;13.306;2022-12-20T19:49:48;58.38;;;17.27;;
33804;SDS011;66088;52.622;13.306;2022-12-20T19:54:14;44.75;;;17.92;;
33804;SDS011;66088;52.622;13.306;2022-12-20T19:58:37;38.58;;;17.02;;
33804;SDS011;66088;52.622;13.306;2022-12-20T20:03:14;42.35;;;17.20;;
33804;SDS011;66088;52.622;13.306;2022-12-20T20:12:56;35.25;;;17.45;;
33804;SDS011;66088;52.622;13.306;2022-12-20T20:17:24;36.25;;;17.27;;
33804;SDS011;66088;52.622;13.306;2022-12-20T20:21:58;54.08;;;18.70;;
33804;SDS011;66088;52.622;13.306;2022-12-20T20:26:26;54.60;;;17.55;;
33804;SDS011;66088;52.622;13.306;2022-12-20T20:35:52;40.15;;;17.80;;
33804;SDS011;66088;52.622;13.306;2022-12-20T20:40:22;37.85;;;17.95;;
33804;SDS011;66088;52.622;13.306;2022-12-20T20:45:28;41.40;;;17.08;;
33804;SDS011;66088;52.622;13.306;2022-12-20T21:05:00;41.65;;;17.25;;
33804;SDS011;66088;52.622;13.306;2022-12-20T21:09:57;57.63;;;19.65;;
33804;SDS011;66088;52.622;13.306;2022-12-20T21:14:57;45.13;;;17.95;;
33804;SDS011;66088;52.622;13.306;2022-12-20T21:19:46;37.10;;;17.58;;
33804;SDS011;66088;52.622;13.306;2022-12-20T21:24:48;59.83;;;18.52;;
33804;SDS011;66088;52.622;13.306;2022-12-20T21:29:49;63.97;;;18.77;;
33804;SDS011;66088;52.622;13.306;2022-12-20T21:34:27;46.42;;;17.50;;
33804;SDS011;66088;52.622;13.306;2022-12-20T21:39:09;45.08;;;18.67;;
33804;SDS011;66088;52.622;13.306;2022-12-20T21:44:09;39.53;;;18.35;;
33804;SDS011;66088;52.622;13.306;2022-12-20T21:53:01;52.78;;;16.55;;
33804;SDS011;66088;52.622;13.306;2022-12-20T22:07:19;61.05;;;19.42;;
33804;SDS011;66088;52.622;13.306;2022-12-20T22:12:00;46.05;;;16.67;;
33804;SDS011;66088;52.622;13.306;2022-12-20T22:16:27;38.65;;;17.13;;
33804;SDS011;66088;52.622;13.306;2022-12-20T22:21:03;55.38;;;18.33;;
33804;SDS011;66088;52.622;13.306;2022-12-20T22:25:49;69.07;;;18.35;;
33804;SDS011;66088;52.622;13.306;2022-12-20T22:31:08;52.95;;;17.10;;
33804;SDS011;66088;52.622;13.306;2022-12-20T22:41:04;39.35;;;16.33;;
33804;SDS011;66088;52.622;13.306;2022-12-20T22:45:32;46.95;;;17.35;;
33804;SDS011;66088;52.622;13.306;2022-12-20T22:50:06;49.63;;;17.65;;
33804;SDS011;66088;52.622;13.306;2022-12-20T22:59:49;59.90;;;16.70;;
33804;SDS011;66088;52.622;13.306;2022-12-20T23:04:55;54.60;;;17.42;;
33804;SDS011;66088;52.622;13.306;2022-12-20T23:09:34;52.80;;;17.67;;
33804;SDS011;66088;52.622;13.306;2022-12-20T23:19:48;39.67;;;17.80;;
33804;SDS011;66088;52.622;13.306;2022-12-20T23:24:25;34.45;;;16.60;;
33804;SDS011;66088;52.622;13.306;2022-12-20T23:28:56;34.38;;;17.00;;
33804;SDS011;66088;52.622;13.306;2022-12-20T23:33:35;35.93;;;17.33;;
33804;SDS011;66088;52.622;13.306;2022-12-20T23:38:19;33.13;;;16.98;;
33804;SDS011;66088;52.622;13.306;2022-12-20T23:53:04;47.67;;;19.00;;
